sensor_id;sensor_type;location;lat;lon;timestamp;P1;durP1;ratioP1;P2;durP2;ratioP2
52322;SDS011;38263;52.920;6.238;2024-02-23T00:00:03;3.03;;;1.30;;
52322;SDS011;38263;52.920;6.238;2024-02-23T00:02:31;4.90;;;1.25;;
52322;SDS011;38263;52.920;6.238;2024-02-23T00:04:57;6.82;;;1.38;;
52322;SDS011;38263;52.920;6.238;2024-02-23T00:07:23;3.50;;;1.42;;
52322;SDS011;38263;52.920;6.238;2024-02-23T00:09:49;3.53;;;1.20;;
52322;SDS011;38263;52.920;6.238;2024-02-23T00:12:15;2.35;;;1.20;;
52322;SDS011;38263;52.920;6.238;2024-02-23T00:14:41;2.28;;;1.40;;
52322;SDS011;38263;52.920;6.238;2024-02-23T00:17:07;2.53;;;0.93;;
52322;SDS011;38263;52.920;6.238;2024-02-23T00:19:33;2.08;;;1.20;;
52322;SDS011;38263;52.920;6.238;2024-02-23T00:21:59;1.27;;;1.10;;
52322;SDS011;38263;52.920;6.238;2024-02-23T00:24:25;2.03;;;1.40;;
52322;SDS011;38263;52.920;6.238;2024-02-23T00:26:51;2.10;;;1.42;;
52322;SDS011;38263;52.920;6.238;2024-02-23T00:29:17;4.40;;;1.02;;
52322;SDS011;38263;52.920;6.238;2024-02-23T00:31:43;3.30;;;1.13;;
52322;SDS011;38263;52.920;6.238;2024-02-23T00:34:12;2.40;;;1.30;;
52322;SDS011;38263;52.920;6.238;2024-02-23T00:36:39;2.95;;;1.67;;
52322;SDS011;38263;52.920;6.238;2024-02-23T00:39:06;2.28;;;1.30;;
52322;SDS011;38263;52.920;6.238;2024-02-23T00:41:35;1.98;;;1.05;;
52322;SDS011;38263;52.920;6.238;2024-02-23T00:44:01;2.13;;;1.25;;
52322;SDS011;38263;52.920;6.238;2024-02-23T00:46:28;1.75;;;0.98;;
52322;SDS011;38263;52.920;6.238;2024-02-23T00:48:54;2.45;;;0.90;;
52322;SDS011;38263;52.920;6.238;2024-02-23T00:51:20;3.42;;;1.90;;
52322;SDS011;38263;52.920;6.238;2024-02-23T00:53:46;1.27;;;1.17;;
52322;SDS011;38263;52.920;6.238;2024-02-23T00:56:12;2.88;;;1.58;;
52322;SDS011;38263;52.920;6.238;2024-02-23T00:58:38;4.38;;;1.33;;
52322;SDS011;38263;52.920;6.238;2024-02-23T01:01:04;2.60;;;1.45;;
52322;SDS011;38263;52.920;6.238;2024-02-23T01:03:30;14.02;;;1.83;;
52322;SDS011;38263;52.920;6.238;2024-02-23T01:05:56;3.78;;;1.65;;
52322;SDS011;38263;52.920;6.238;2024-02-23T01:08:22;3.60;;;1.33;;
52322;SDS011;38263;52.920;6.238;2024-02-23T01:10:48;3.90;;;1.35;;
52322;SDS011;38263;52.920;6.238;2024-02-23T01:13:14;2.00;;;1.52;;
52322;SDS011;38263;52.920;6.238;2024-02-23T01:15:41;5.40;;;1.75;;
52322;SDS011;38263;52.920;6.238;2024-02-23T01:18:07;3.58;;;1.80;;
52322;SDS011;38263;52.920;6.238;2024-02-23T01:20:33;9.25;;;1.80;;
52322;SDS011;38263;52.920;6.238;2024-02-23T01:22:59;10.20;;;2.45;;
52322;SDS011;38263;52.920;6.238;2024-02-23T01:25:25;7.13;;;2.25;;
52322;SDS011;38263;52.920;6.238;2024-02-23T01:27:51;6.15;;;2.08;;
52322;SDS011;38263;52.920;6.238;2024-02-23T01:30:17;6.35;;;2.00;;
52322;SDS011;38263;52.920;6.238;2024-02-23T01:32:44;10.32;;;2.38;;
52322;SDS011;38263;52.920;6.238;2024-02-23T01:35:10;8.85;;;2.78;;
52322;SDS011;38263;52.920;6.238;2024-02-23T01:37:36;6.85;;;1.73;;
52322;SDS011;38263;52.920;6.238;2024-02-23T01:40:02;11.00;;;2.50;;
52322;SDS011;38263;52.920;6.238;2024-02-23T01:42:28;11.48;;;2.90;;
52322;SDS011;38263;52.920;6.238;2024-02-23T01:44:54;8.15;;;3.03;;
52322;SDS011;38263;52.920;6.238;2024-02-23T01:47:22;11.23;;;3.10;;
52322;SDS011;38263;52.920;6.238;2024-02-23T01:49:48;12.38;;;3.33;;
52322;SDS011;38263;52.920;6.238;2024-02-23T01:52:15;11.70;;;3.35;;
52322;SDS011;38263;52.920;6.238;2024-02-23T01:54:41;9.15;;;3.28;;
52322;SDS011;38263;52.920;6.238;2024-02-23T01:57:08;17.80;;;3.25;;
52322;SDS011;38263;52.920;6.238;2024-02-23T01:59:34;8.98;;;2.67;;
52322;SDS011;38263;52.920;6.238;2024-02-23T02:02:02;10.25;;;3.42;;
52322;SDS011;38263;52.920;6.238;2024-02-23T02:04:28;15.02;;;3.17;;
52322;SDS011;38263;52.920;6.238;2024-02-23T02:06:54;14.75;;;2.58;;
52322;SDS011;38263;52.920;6.238;2024-02-23T02:09:21;6.95;;;2.08;;
52322;SDS011;38263;52.920;6.238;2024-02-23T02:11:47;9.23;;;2.70;;
52322;SDS011;38263;52.920;6.238;2024-02-23T02:14:14;6.75;;;2.53;;
52322;SDS011;38263;52.920;6.238;2024-02-23T02:16:40;8.40;;;2.08;;
52322;SDS011;38263;52.920;6.238;2024-02-23T02:19:06;6.75;;;2.28;;
52322;SDS011;38263;52.920;6.238;2024-02-23T02:21:32;8.65;;;2.13;;
52322;SDS011;38263;52.920;6.238;2024-02-23T02:23:59;12.13;;;2.75;;
52322;SDS011;38263;52.920;6.238;2024-02-23T02:26:25;6.28;;;2.30;;
52322;SDS011;38263;52.920;6.238;2024-02-23T02:28:51;8.80;;;3.20;;
52322;SDS011;38263;52.920;6.238;2024-02-23T02:31:17;11.10;;;2.20;;
52322;SDS011;38263;52.920;6.238;2024-02-23T02:33:43;5.72;;;2.00;;
52322;SDS011;38263;52.920;6.238;2024-02-23T02:36:09;7.97;;;1.83;;
52322;SDS011;38263;52.920;6.238;2024-02-23T02:38:36;8.38;;;2.20;;
52322;SDS011;38263;52.920;6.238;2024-02-23T02:41:02;10.68;;;2.50;;
52322;SDS011;38263;52.920;6.238;2024-02-23T02:43:28;5.75;;;2.70;;
52322;SDS011;38263;52.920;6.238;2024-02-23T02:45:54;17.83;;;2.78;;
52322;SDS011;38263;52.920;6.238;2024-02-23T02:48:20;6.15;;;1.70;;
52322;SDS011;38263;52.920;6.238;2024-02-23T02:50:46;10.95;;;1.85;;
52322;SDS011;38263;52.920;6.238;2024-02-23T02:53:12;9.82;;;1.95;;
52322;SDS011;38263;52.920;6.238;2024-02-23T02:55:40;9.57;;;2.17;;
52322;SDS011;38263;52.920;6.238;2024-02-23T02:58:07;7.93;;;2.30;;
52322;SDS011;38263;52.920;6.238;2024-02-23T03:00:33;13.40;;;2.30;;
52322;SDS011;38263;52.920;6.238;2024-02-23T03:02:58;10.88;;;2.17;;
52322;SDS011;38263;52.920;6.238;2024-02-23T03:05:24;9.38;;;2.28;;
52322;SDS011;38263;52.920;6.238;2024-02-23T03:07:50;7.55;;;2.30;;
52322;SDS011;38263;52.920;6.238;2024-02-23T03:10:17;9.95;;;2.30;;
52322;SDS011;38263;52.920;6.238;2024-02-23T03:12:43;11.75;;;2.38;;
52322;SDS011;38263;52.920;6.238;2024-02-23T03:15:09;6.18;;;2.08;;
52322;SDS011;38263;52.920;6.238;2024-02-23T03:17:35;8.05;;;1.58;;
52322;SDS011;38263;52.920;6.238;2024-02-23T03:20:01;14.27;;;2.60;;
52322;SDS011;38263;52.920;6.238;2024-02-23T03:22:30;5.22;;;2.30;;
52322;SDS011;38263;52.920;6.238;2024-02-23T03:24:56;7.63;;;2.10;;
52322;SDS011;38263;52.920;6.238;2024-02-23T03:27:27;9.80;;;2.47;;
52322;SDS011;38263;52.920;6.238;2024-02-23T03:29:54;7.00;;;2.15;;
52322;SDS011;38263;52.920;6.238;2024-02-23T03:32:20;5.68;;;2.08;;
52322;SDS011;38263;52.920;6.238;2024-02-23T03:34:46;9.00;;;1.98;;
52322;SDS011;38263;52.920;6.238;2024-02-23T03:37:12;6.70;;;2.72;;
52322;SDS011;38263;52.920;6.238;2024-02-23T03:39:38;6.28;;;1.88;;
52322;SDS011;38263;52.920;6.238;2024-02-23T03:42:04;11.38;;;2.42;;
52322;SDS011;38263;52.920;6.238;2024-02-23T03:44:30;9.35;;;2.78;;
52322;SDS011;38263;52.920;6.238;2024-02-23T03:46:56;6.35;;;1.73;;
52322;SDS011;38263;52.920;6.238;2024-02-23T03:49:22;14.95;;;2.25;;
52322;SDS011;38263;52.920;6.238;2024-02-23T03:51:49;4.70;;;1.92;;
52322;SDS011;38263;52.920;6.238;2024-02-23T03:54:15;11.40;;;2.85;;
52322;SDS011;38263;52.920;6.238;2024-02-23T03:56:41;8.27;;;1.60;;
52322;SDS011;38263;52.920;6.238;2024-02-23T03:59:07;8.93;;;1.98;;
52322;SDS011;38263;52.920;6.238;2024-02-23T04:01:37;6.68;;;2.30;;
52322;SDS011;38263;52.920;6.238;2024-02-23T04:04:03;10.10;;;1.85;;
52322;SDS011;38263;52.920;6.238;2024-02-23T04:06:29;9.23;;;1.80;;
52322;SDS011;38263;52.920;6.238;2024-02-23T04:08:56;9.68;;;1.85;;
52322;SDS011;38263;52.920;6.238;2024-02-23T04:11:22;5.57;;;1.67;;
52322;SDS011;38263;52.920;6.238;2024-02-23T04:13:48;14.85;;;2.40;;
52322;SDS011;38263;52.920;6.238;2024-02-23T04:16:14;12.43;;;3.80;;
52322;SDS011;38263;52.920;6.238;2024-02-23T04:18:40;9.50;;;2.53;;
52322;SDS011;38263;52.920;6.238;2024-02-23T04:21:06;10.73;;;2.40;;
52322;SDS011;38263;52.920;6.238;2024-02-23T04:23:32;10.40;;;2.05;;
52322;SDS011;38263;52.920;6.238;2024-02-23T04:25:58;7.80;;;2.22;;
52322;SDS011;38263;52.920;6.238;2024-02-23T04:28:24;10.00;;;2.42;;
52322;SDS011;38263;52.920;6.238;2024-02-23T04:30:51;5.53;;;1.70;;
52322;SDS011;38263;52.920;6.238;2024-02-23T04:33:17;12.23;;;2.00;;
52322;SDS011;38263;52.920;6.238;2024-02-23T04:35:43;17.20;;;3.60;;
52322;SDS011;38263;52.920;6.238;2024-02-23T04:38:09;9.25;;;2.00;;
52322;SDS011;38263;52.920;6.238;2024-02-23T04:40:35;6.22;;;1.95;;
52322;SDS011;38263;52.920;6.238;2024-02-23T04:43:01;10.55;;;2.35;;
52322;SDS011;38263;52.920;6.238;2024-02-23T04:45:27;6.75;;;2.20;;
52322;SDS011;38263;52.920;6.238;2024-02-23T04:47:53;11.68;;;2.33;;
52322;SDS011;38263;52.920;6.238;2024-02-23T04:50:19;5.63;;;1.98;;
52322;SDS011;38263;52.920;6.238;2024-02-23T04:52:45;6.40;;;1.92;;
52322;SDS011;38263;52.920;6.238;2024-02-23T04:55:11;14.15;;;4.70;;
52322;SDS011;38263;52.920;6.238;2024-02-23T04:57:38;9.02;;;2.55;;
52322;SDS011;38263;52.920;6.238;2024-02-23T05:00:04;4.60;;;1.63;;
52322;SDS011;38263;52.920;6.238;2024-02-23T05:02:32;7.80;;;1.90;;
52322;SDS011;38263;52.920;6.238;2024-02-23T05:05:03;6.43;;;2.55;;
52322;SDS011;38263;52.920;6.238;2024-02-23T05:07:33;8.88;;;2.70;;
52322;SDS011;38263;52.920;6.238;2024-02-23T05:09:59;14.60;;;3.10;;
52322;SDS011;38263;52.920;6.238;2024-02-23T05:12:25;10.25;;;2.83;;
52322;SDS011;38263;52.920;6.238;2024-02-23T05:14:51;7.72;;;2.40;;
52322;SDS011;38263;52.920;6.238;2024-02-23T05:17:17;8.35;;;3.15;;
52322;SDS011;38263;52.920;6.238;2024-02-23T05:19:43;6.15;;;2.33;;
52322;SDS011;38263;52.920;6.238;2024-02-23T05:22:11;9.02;;;2.55;;
52322;SDS011;38263;52.920;6.238;2024-02-23T05:24:37;7.07;;;2.78;;
52322;SDS011;38263;52.920;6.238;2024-02-23T05:27:03;6.18;;;2.90;;
52322;SDS011;38263;52.920;6.238;2024-02-23T05:29:29;12.40;;;3.50;;
52322;SDS011;38263;52.920;6.238;2024-02-23T05:31:55;9.07;;;4.22;;
52322;SDS011;38263;52.920;6.238;2024-02-23T05:34:21;12.45;;;3.80;;
52322;SDS011;38263;52.920;6.238;2024-02-23T05:36:48;12.30;;;4.13;;
52322;SDS011;38263;52.920;6.238;2024-02-23T05:39:15;7.38;;;3.92;;
52322;SDS011;38263;52.920;6.238;2024-02-23T05:41:42;10.38;;;5.25;;
52322;SDS011;38263;52.920;6.238;2024-02-23T05:44:08;9.90;;;5.13;;
52322;SDS011;38263;52.920;6.238;2024-02-23T05:46:35;10.55;;;5.22;;
52322;SDS011;38263;52.920;6.238;2024-02-23T05:49:02;14.73;;;5.68;;
52322;SDS011;38263;52.920;6.238;2024-02-23T05:51:29;13.40;;;5.05;;
52322;SDS011;38263;52.920;6.238;2024-02-23T05:53:55;9.55;;;5.63;;
52322;SDS011;38263;52.920;6.238;2024-02-23T05:56:21;10.65;;;4.50;;
52322;SDS011;38263;52.920;6.238;2024-02-23T05:58:49;12.25;;;4.57;;
52322;SDS011;38263;52.920;6.238;2024-02-23T06:01:15;8.13;;;4.30;;
52322;SDS011;38263;52.920;6.238;2024-02-23T06:03:41;11.52;;;4.82;;
52322;SDS011;38263;52.920;6.238;2024-02-23T06:06:07;9.40;;;4.57;;
52322;SDS011;38263;52.920;6.238;2024-02-23T06:08:33;11.65;;;5.03;;
52322;SDS011;38263;52.920;6.238;2024-02-23T06:11:00;14.10;;;4.93;;
52322;SDS011;38263;52.920;6.238;2024-02-23T06:13:26;14.00;;;5.15;;
52322;SDS011;38263;52.920;6.238;2024-02-23T06:15:52;11.77;;;4.90;;
52322;SDS011;38263;52.920;6.238;2024-02-23T06:18:18;12.52;;;5.40;;
52322;SDS011;38263;52.920;6.238;2024-02-23T06:20:44;13.82;;;6.60;;
52322;SDS011;38263;52.920;6.238;2024-02-23T06:23:10;18.60;;;5.60;;
52322;SDS011;38263;52.920;6.238;2024-02-23T06:25:36;10.52;;;5.45;;
52322;SDS011;38263;52.920;6.238;2024-02-23T06:28:02;14.35;;;5.63;;
52322;SDS011;38263;52.920;6.238;2024-02-23T06:30:28;14.35;;;5.55;;
52322;SDS011;38263;52.920;6.238;2024-02-23T06:32:54;9.85;;;5.00;;
52322;SDS011;38263;52.920;6.238;2024-02-23T06:35:20;9.07;;;5.53;;
52322;SDS011;38263;52.920;6.238;2024-02-23T06:37:47;11.68;;;5.60;;
52322;SDS011;38263;52.920;6.238;2024-02-23T06:40:13;15.35;;;6.63;;
52322;SDS011;38263;52.920;6.238;2024-02-23T06:42:39;13.25;;;5.30;;
52322;SDS011;38263;52.920;6.238;2024-02-23T06:45:05;13.13;;;6.63;;
52322;SDS011;38263;52.920;6.238;2024-02-23T06:47:33;16.52;;;5.68;;
52322;SDS011;38263;52.920;6.238;2024-02-23T06:49:59;14.15;;;5.53;;
52322;SDS011;38263;52.920;6.238;2024-02-23T06:52:25;13.80;;;5.32;;
52322;SDS011;38263;52.920;6.238;2024-02-23T06:54:51;11.25;;;5.18;;
52322;SDS011;38263;52.920;6.238;2024-02-23T06:57:17;11.70;;;4.82;;
52322;SDS011;38263;52.920;6.238;2024-02-23T06:59:43;17.75;;;5.95;;
52322;SDS011;38263;52.920;6.238;2024-02-23T07:02:09;9.75;;;4.85;;
52322;SDS011;38263;52.920;6.238;2024-02-23T07:04:35;12.27;;;5.43;;
52322;SDS011;38263;52.920;6.238;2024-02-23T07:07:01;12.77;;;4.88;;
52322;SDS011;38263;52.920;6.238;2024-02-23T07:09:32;18.88;;;6.57;;
52322;SDS011;38263;52.920;6.238;2024-02-23T07:11:58;14.95;;;5.43;;
52322;SDS011;38263;52.920;6.238;2024-02-23T07:14:24;10.93;;;5.85;;
52322;SDS011;38263;52.920;6.238;2024-02-23T07:16:50;12.88;;;4.68;;
52322;SDS011;38263;52.920;6.238;2024-02-23T07:19:17;11.07;;;5.05;;
52322;SDS011;38263;52.920;6.238;2024-02-23T07:21:45;10.75;;;4.68;;
52322;SDS011;38263;52.920;6.238;2024-02-23T07:24:11;12.55;;;4.57;;
52322;SDS011;38263;52.920;6.238;2024-02-23T07:26:37;7.82;;;4.68;;
52322;SDS011;38263;52.920;6.238;2024-02-23T07:29:03;9.05;;;4.30;;
52322;SDS011;38263;52.920;6.238;2024-02-23T07:31:29;9.73;;;4.55;;
52322;SDS011;38263;52.920;6.238;2024-02-23T07:33:55;7.35;;;4.53;;
52322;SDS011;38263;52.920;6.238;2024-02-23T07:36:21;10.80;;;4.95;;
52322;SDS011;38263;52.920;6.238;2024-02-23T07:38:47;9.55;;;4.40;;
52322;SDS011;38263;52.920;6.238;2024-02-23T07:41:14;10.50;;;4.53;;
52322;SDS011;38263;52.920;6.238;2024-02-23T07:43:42;6.60;;;4.03;;
52322;SDS011;38263;52.920;6.238;2024-02-23T07:46:09;11.05;;;4.40;;
52322;SDS011;38263;52.920;6.238;2024-02-23T07:48:35;7.22;;;4.18;;
52322;SDS011;38263;52.920;6.238;2024-02-23T07:51:01;5.78;;;4.50;;
52322;SDS011;38263;52.920;6.238;2024-02-23T07:53:28;6.95;;;3.97;;
52322;SDS011;38263;52.920;6.238;2024-02-23T07:55:54;9.70;;;3.90;;
52322;SDS011;38263;52.920;6.238;2024-02-23T07:58:20;8.77;;;4.00;;
52322;SDS011;38263;52.920;6.238;2024-02-23T08:00:46;8.02;;;3.25;;
52322;SDS011;38263;52.920;6.238;2024-02-23T08:03:12;10.02;;;3.70;;
52322;SDS011;38263;52.920;6.238;2024-02-23T08:05:39;7.10;;;3.50;;
52322;SDS011;38263;52.920;6.238;2024-02-23T08:08:05;7.18;;;3.40;;
52322;SDS011;38263;52.920;6.238;2024-02-23T08:10:32;6.72;;;3.38;;
52322;SDS011;38263;52.920;6.238;2024-02-23T08:12:58;10.55;;;3.20;;
52322;SDS011;38263;52.920;6.238;2024-02-23T08:15:24;12.82;;;3.20;;
52322;SDS011;38263;52.920;6.238;2024-02-23T08:17:50;7.93;;;2.97;;
52322;SDS011;38263;52.920;6.238;2024-02-23T08:20:16;6.65;;;3.17;;
52322;SDS011;38263;52.920;6.238;2024-02-23T08:22:42;6.38;;;2.35;;
52322;SDS011;38263;52.920;6.238;2024-02-23T08:25:09;8.15;;;2.70;;
52322;SDS011;38263;52.920;6.238;2024-02-23T08:27:35;8.95;;;2.55;;
52322;SDS011;38263;52.920;6.238;2024-02-23T08:30:01;5.07;;;1.88;;
52322;SDS011;38263;52.920;6.238;2024-02-23T08:32:28;5.63;;;2.92;;
52322;SDS011;38263;52.920;6.238;2024-02-23T08:34:54;4.72;;;2.08;;
52322;SDS011;38263;52.920;6.238;2024-02-23T08:37:25;3.13;;;2.20;;
52322;SDS011;38263;52.920;6.238;2024-02-23T08:39:51;8.23;;;2.45;;
52322;SDS011;38263;52.920;6.238;2024-02-23T08:42:17;4.28;;;2.15;;
52322;SDS011;38263;52.920;6.238;2024-02-23T08:44:43;4.85;;;2.55;;
52322;SDS011;38263;52.920;6.238;2024-02-23T08:47:09;4.95;;;2.25;;
52322;SDS011;38263;52.920;6.238;2024-02-23T08:49:35;6.68;;;3.10;;
52322;SDS011;38263;52.920;6.238;2024-02-23T08:52:01;3.80;;;2.50;;
52322;SDS011;38263;52.920;6.238;2024-02-23T08:54:28;7.22;;;2.67;;
52322;SDS011;38263;52.920;6.238;2024-02-23T08:56:54;4.72;;;2.42;;
52322;SDS011;38263;52.920;6.238;2024-02-23T08:59:21;2.90;;;1.80;;
52322;SDS011;38263;52.920;6.238;2024-02-23T09:01:47;9.63;;;2.85;;
52322;SDS011;38263;52.920;6.238;2024-02-23T09:04:13;8.68;;;2.55;;
52322;SDS011;38263;52.920;6.238;2024-02-23T09:06:39;4.82;;;2.10;;
52322;SDS011;38263;52.920;6.238;2024-02-23T09:09:05;4.55;;;2.20;;
52322;SDS011;38263;52.920;6.238;2024-02-23T09:11:31;9.10;;;2.05;;
52322;SDS011;38263;52.920;6.238;2024-02-23T09:13:57;4.68;;;2.08;;
52322;SDS011;38263;52.920;6.238;2024-02-23T09:16:23;5.78;;;1.77;;
52322;SDS011;38263;52.920;6.238;2024-02-23T09:18:49;7.07;;;2.10;;
52322;SDS011;38263;52.920;6.238;2024-02-23T09:21:16;9.82;;;2.50;;
52322;SDS011;38263;52.920;6.238;2024-02-23T09:23:42;8.18;;;2.35;;
52322;SDS011;38263;52.920;6.238;2024-02-23T09:26:11;5.65;;;1.80;;
52322;SDS011;38263;52.920;6.238;2024-02-23T09:28:37;7.20;;;2.22;;
52322;SDS011;38263;52.920;6.238;2024-02-23T09:31:05;6.50;;;2.33;;
52322;SDS011;38263;52.920;6.238;2024-02-23T09:33:31;8.13;;;2.50;;
52322;SDS011;38263;52.920;6.238;2024-02-23T09:36:00;11.48;;;3.25;;
52322;SDS011;38263;52.920;6.238;2024-02-23T09:38:26;11.13;;;3.35;;
52322;SDS011;38263;52.920;6.238;2024-02-23T09:40:53;11.80;;;2.00;;
52322;SDS011;38263;52.920;6.238;2024-02-23T09:43:20;6.57;;;2.13;;
52322;SDS011;38263;52.920;6.238;2024-02-23T09:45:50;6.63;;;1.80;;
52322;SDS011;38263;52.920;6.238;2024-02-23T09:48:17;6.05;;;2.30;;
52322;SDS011;38263;52.920;6.238;2024-02-23T09:50:44;8.45;;;1.55;;
52322;SDS011;38263;52.920;6.238;2024-02-23T09:53:11;17.35;;;2.28;;
52322;SDS011;38263;52.920;6.238;2024-02-23T09:55:37;5.53;;;2.00;;
52322;SDS011;38263;52.920;6.238;2024-02-23T09:58:03;10.05;;;2.13;;
52322;SDS011;38263;52.920;6.238;2024-02-23T10:00:29;5.25;;;1.88;;
52322;SDS011;38263;52.920;6.238;2024-02-23T10:02:56;4.32;;;1.20;;
52322;SDS011;38263;52.920;6.238;2024-02-23T10:05:23;5.47;;;1.60;;
52322;SDS011;38263;52.920;6.238;2024-02-23T10:07:55;7.75;;;1.90;;
52322;SDS011;38263;52.920;6.238;2024-02-23T10:10:35;4.28;;;1.65;;
52322;SDS011;38263;52.920;6.238;2024-02-23T10:13:01;7.65;;;1.70;;
52322;SDS011;38263;52.920;6.238;2024-02-23T10:15:29;7.32;;;2.15;;
52322;SDS011;38263;52.920;6.238;2024-02-23T10:17:58;7.30;;;1.75;;
52322;SDS011;38263;52.920;6.238;2024-02-23T10:20:24;6.43;;;1.83;;
52322;SDS011;38263;52.920;6.238;2024-02-23T10:22:50;5.28;;;1.58;;
52322;SDS011;38263;52.920;6.238;2024-02-23T10:25:18;4.43;;;2.17;;
52322;SDS011;38263;52.920;6.238;2024-02-23T10:27:44;7.10;;;1.95;;
52322;SDS011;38263;52.920;6.238;2024-02-23T10:30:10;7.30;;;2.30;;
52322;SDS011;38263;52.920;6.238;2024-02-23T10:32:38;6.25;;;1.90;;
52322;SDS011;38263;52.920;6.238;2024-02-23T10:35:13;6.38;;;2.10;;
52322;SDS011;38263;52.920;6.238;2024-02-23T10:37:43;6.57;;;2.17;;
52322;SDS011;38263;52.920;6.238;2024-02-23T10:40:12;7.18;;;1.83;;
52322;SDS011;38263;52.920;6.238;2024-02-23T10:42:39;4.32;;;1.73;;
52322;SDS011;38263;52.920;6.238;2024-02-23T10:45:07;3.97;;;1.63;;
52322;SDS011;38263;52.920;6.238;2024-02-23T10:47:33;6.40;;;1.60;;
52322;SDS011;38263;52.920;6.238;2024-02-23T10:50:00;2.53;;;1.52;;
52322;SDS011;38263;52.920;6.238;2024-02-23T10:52:27;6.93;;;2.22;;
52322;SDS011;38263;52.920;6.238;2024-02-23T10:54:54;5.90;;;1.98;;
52322;SDS011;38263;52.920;6.238;2024-02-23T10:57:21;5.53;;;1.83;;
52322;SDS011;38263;52.920;6.238;2024-02-23T10:59:47;6.05;;;1.70;;
52322;SDS011;38263;52.920;6.238;2024-02-23T11:02:14;9.13;;;2.13;;
52322;SDS011;38263;52.920;6.238;2024-02-23T11:04:42;6.05;;;2.00;;
52322;SDS011;38263;52.920;6.238;2024-02-23T11:07:14;4.95;;;1.90;;
52322;SDS011;38263;52.920;6.238;2024-02-23T11:09:40;9.38;;;2.42;;
52322;SDS011;38263;52.920;6.238;2024-02-23T11:12:06;8.73;;;1.90;;
52322;SDS011;38263;52.920;6.238;2024-02-23T11:14:35;3.47;;;1.65;;
52322;SDS011;38263;52.920;6.238;2024-02-23T11:17:01;8.80;;;1.80;;
52322;SDS011;38263;52.920;6.238;2024-02-23T11:19:38;5.88;;;1.95;;
52322;SDS011;38263;52.920;6.238;2024-02-23T11:22:04;4.88;;;1.80;;
52322;SDS011;38263;52.920;6.238;2024-02-23T11:24:34;4.93;;;2.22;;
52322;SDS011;38263;52.920;6.238;2024-02-23T11:27:02;6.15;;;2.17;;
52322;SDS011;38263;52.920;6.238;2024-02-23T11:29:33;9.32;;;1.85;;
52322;SDS011;38263;52.920;6.238;2024-02-23T11:32:01;4.38;;;1.60;;
52322;SDS011;38263;52.920;6.238;2024-02-23T11:34:29;4.28;;;1.58;;
52322;SDS011;38263;52.920;6.238;2024-02-23T11:36:55;5.22;;;1.83;;
52322;SDS011;38263;52.920;6.238;2024-02-23T11:39:24;6.05;;;2.47;;
52322;SDS011;38263;52.920;6.238;2024-02-23T11:41:52;6.00;;;2.17;;
52322;SDS011;38263;52.920;6.238;2024-02-23T11:44:18;3.85;;;1.60;;
52322;SDS011;38263;52.920;6.238;2024-02-23T11:46:44;5.47;;;1.90;;
52322;SDS011;38263;52.920;6.238;2024-02-23T11:49:10;3.90;;;1.83;;
52322;SDS011;38263;52.920;6.238;2024-02-23T11:51:36;2.83;;;1.63;;
52322;SDS011;38263;52.920;6.238;2024-02-23T11:54:02;8.55;;;2.28;;
52322;SDS011;38263;52.920;6.238;2024-02-23T11:56:31;7.60;;;2.40;;
52322;SDS011;38263;52.920;6.238;2024-02-23T11:58:58;7.00;;;2.33;;
52322;SDS011;38263;52.920;6.238;2024-02-23T12:01:24;4.80;;;2.00;;
52322;SDS011;38263;52.920;6.238;2024-02-23T12:03:50;6.72;;;2.30;;
52322;SDS011;38263;52.920;6.238;2024-02-23T12:06:16;4.45;;;1.88;;
52322;SDS011;38263;52.920;6.238;2024-02-23T12:08:42;4.88;;;1.85;;
52322;SDS011;38263;52.920;6.238;2024-02-23T12:11:10;10.00;;;2.70;;
52322;SDS011;38263;52.920;6.238;2024-02-23T12:13:38;5.75;;;1.95;;
52322;SDS011;38263;52.920;6.238;2024-02-23T12:16:06;4.80;;;1.90;;
52322;SDS011;38263;52.920;6.238;2024-02-23T12:18:33;2.95;;;1.50;;
52322;SDS011;38263;52.920;6.238;2024-02-23T12:21:05;6.20;;;2.20;;
52322;SDS011;38263;52.920;6.238;2024-02-23T12:23:41;5.05;;;1.50;;
52322;SDS011;38263;52.920;6.238;2024-02-23T12:26:07;2.65;;;1.65;;
52322;SDS011;38263;52.920;6.238;2024-02-23T12:28:34;8.35;;;2.00;;
52322;SDS011;38263;52.920;6.238;2024-02-23T12:31:00;8.43;;;2.65;;
52322;SDS011;38263;52.920;6.238;2024-02-23T12:33:27;4.05;;;1.55;;
52322;SDS011;38263;52.920;6.238;2024-02-23T12:35:54;6.05;;;2.78;;
52322;SDS011;38263;52.920;6.238;2024-02-23T12:38:21;9.07;;;2.03;;
52322;SDS011;38263;52.920;6.238;2024-02-23T12:40:47;2.78;;;1.63;;
52322;SDS011;38263;52.920;6.238;2024-02-23T12:43:13;4.50;;;2.35;;
52322;SDS011;38263;52.920;6.238;2024-02-23T12:45:39;7.70;;;2.20;;
52322;SDS011;38263;52.920;6.238;2024-02-23T12:48:05;6.75;;;2.13;;
52322;SDS011;38263;52.920;6.238;2024-02-23T12:50:31;9.65;;;2.53;;
52322;SDS011;38263;52.920;6.238;2024-02-23T12:52:57;5.70;;;2.40;;
52322;SDS011;38263;52.920;6.238;2024-02-23T12:55:25;5.88;;;2.10;;
52322;SDS011;38263;52.920;6.238;2024-02-23T12:57:51;2.45;;;1.77;;
52322;SDS011;38263;52.920;6.238;2024-02-23T13:00:17;5.95;;;1.80;;
52322;SDS011;38263;52.920;6.238;2024-02-23T13:02:43;5.72;;;2.10;;
52322;SDS011;38263;52.920;6.238;2024-02-23T13:05:09;7.32;;;2.25;;
52322;SDS011;38263;52.920;6.238;2024-02-23T13:07:35;4.68;;;1.90;;
52322;SDS011;38263;52.920;6.238;2024-02-23T13:10:03;5.30;;;1.70;;
52322;SDS011;38263;52.920;6.238;2024-02-23T13:12:30;5.95;;;2.25;;
52322;SDS011;38263;52.920;6.238;2024-02-23T13:14:56;5.05;;;1.95;;
52322;SDS011;38263;52.920;6.238;2024-02-23T13:17:22;4.40;;;1.40;;
52322;SDS011;38263;52.920;6.238;2024-02-23T13:19:47;6.30;;;1.77;;
52322;SDS011;38263;52.920;6.238;2024-02-23T13:22:13;13.23;;;3.08;;
52322;SDS011;38263;52.920;6.238;2024-02-23T13:24:39;6.15;;;2.38;;
52322;SDS011;38263;52.920;6.238;2024-02-23T13:27:06;5.53;;;3.10;;
52322;SDS011;38263;52.920;6.238;2024-02-23T13:29:32;4.90;;;1.98;;
52322;SDS011;38263;52.920;6.238;2024-02-23T13:31:58;4.47;;;1.85;;
52322;SDS011;38263;52.920;6.238;2024-02-23T13:34:24;7.05;;;1.80;;
52322;SDS011;38263;52.920;6.238;2024-02-23T13:36:50;5.45;;;2.10;;
52322;SDS011;38263;52.920;6.238;2024-02-23T13:39:17;4.75;;;2.17;;
52322;SDS011;38263;52.920;6.238;2024-02-23T13:41:43;6.13;;;2.03;;
52322;SDS011;38263;52.920;6.238;2024-02-23T13:44:09;8.85;;;2.10;;
52322;SDS011;38263;52.920;6.238;2024-02-23T13:46:36;5.47;;;2.95;;
52322;SDS011;38263;52.920;6.238;2024-02-23T13:49:04;7.95;;;3.13;;
52322;SDS011;38263;52.920;6.238;2024-02-23T13:51:31;3.78;;;2.03;;
52322;SDS011;38263;52.920;6.238;2024-02-23T13:53:57;4.07;;;1.73;;
52322;SDS011;38263;52.920;6.238;2024-02-23T13:56:23;4.97;;;1.88;;
52322;SDS011;38263;52.920;6.238;2024-02-23T13:58:49;5.57;;;2.40;;
52322;SDS011;38263;52.920;6.238;2024-02-23T14:01:15;5.28;;;2.10;;
52322;SDS011;38263;52.920;6.238;2024-02-23T14:03:41;5.53;;;2.15;;
52322;SDS011;38263;52.920;6.238;2024-02-23T14:06:08;4.90;;;2.38;;
52322;SDS011;38263;52.920;6.238;2024-02-23T14:08:34;8.45;;;2.67;;
52322;SDS011;38263;52.920;6.238;2024-02-23T14:11:02;9.70;;;2.05;;
52322;SDS011;38263;52.920;6.238;2024-02-23T14:13:30;4.45;;;1.83;;
52322;SDS011;38263;52.920;6.238;2024-02-23T14:15:57;6.78;;;2.28;;
52322;SDS011;38263;52.920;6.238;2024-02-23T14:18:23;6.13;;;2.08;;
52322;SDS011;38263;52.920;6.238;2024-02-23T14:20:49;6.75;;;2.58;;
52322;SDS011;38263;52.920;6.238;2024-02-23T14:23:17;6.35;;;2.17;;
52322;SDS011;38263;52.920;6.238;2024-02-23T14:25:43;8.95;;;2.60;;
52322;SDS011;38263;52.920;6.238;2024-02-23T14:28:09;6.45;;;2.25;;
52322;SDS011;38263;52.920;6.238;2024-02-23T14:30:37;3.85;;;2.80;;
52322;SDS011;38263;52.920;6.238;2024-02-23T14:33:02;12.02;;;3.42;;
52322;SDS011;38263;52.920;6.238;2024-02-23T14:35:28;9.50;;;3.45;;
52322;SDS011;38263;52.920;6.238;2024-02-23T14:37:54;10.88;;;3.67;;
52322;SDS011;38263;52.920;6.238;2024-02-23T14:40:20;3.25;;;2.20;;